Terminal Aerodrome Forecast
Issued by NWS

Home | Current Version | Previous Version | Text Only | Print | Product List | Glossary On
Versions: 1 2 3 4 5 6 7 8 9 10 11 12 13 14 15 16 17 18 19 20 21 22
000
FTUS45 KREV 212330
TAFTRK
TAF
KTRK 212330Z 2200/2224 22007KT P6SM SCT060 BKN080
     FM220600 20007KT P6SM VCSH BKN035 OVC060
     FM221100 VRB04KT 5SM -SN SCT008 OVC012
     FM221600 VRB03KT P6SM SCT015 BKN025
     FM222200 22004KT P6SM SCT028 BKN035=

USA.gov is the U.S. government's official web portal to all federal, state and local government web resources and services.